Time;durP1;ratioP1;P1;durP2;ratioP2;P2;SDS_P1;SDS_P2;PMS_P1;PMS_P2;Temp;Humidity;BMP_temperature;BMP_pressure;BME280_temperature;BME280_humidity;BME280_pressure;Samples;Min_cycle;Max_cycle;Signal;HPM_P1;HPM_P2
2021/11/12 00:03:10;;;;;;;24.65;6.93;;;;;;;11.66;100.00;101637.22;5001456;28;20036;-65
2021/11/12 00:13:47;;;;;;;25.13;5.95;;;;;;;11.62;100.00;101632.81;5009530;28;20530;-65
2021/11/12 00:16:13;;;;;;;28.52;7.40;;;;;;;11.65;100.00;101630.25;5001583;28;20026;-64
2021/11/12 00:18:39;;;;;;;30.73;7.45;;;;;;;11.65;100.00;101638.34;5006123;28;20467;-64
2021/11/12 00:21:05;;;;;;;30.38;7.15;;;;;;;11.68;100.00;101636.88;5006842;28;20400;-64
2021/11/12 00:23:34;;;;;;;23.85;5.40;;;;;;;11.67;100.00;101628.00;5009802;28;20022;-63
2021/11/12 00:26:01;;;;;;;24.33;6.57;;;;;;;11.65;100.00;101627.56;5010422;28;20042;-64
2021/11/12 00:28:32;;;;;;;26.27;6.22;;;;;;;11.68;100.00;101632.28;4999852;28;20042;-65
2021/11/12 00:36:55;;;;;;;26.15;6.70;;;;;;;11.61;100.00;101625.84;5010304;28;20050;-64
2021/11/12 00:39:46;;;;;;;27.05;6.13;;;;;;;11.66;100.00;101618.34;5013347;28;20399;-64
2021/11/12 00:42:27;;;;;;;24.27;5.70;;;;;;;11.63;100.00;101618.22;5005222;28;20538;-64
2021/11/12 00:47:24;;;;;;;26.33;7.78;;;;;;;11.58;100.00;101624.59;5007948;28;20033;-65
2021/11/12 00:55:17;;;;;;;26.20;5.75;;;;;;;11.56;100.00;101626.06;5014020;28;20038;-64
2021/11/12 00:57:45;;;;;;;27.83;7.45;;;;;;;11.57;100.00;101631.16;5014045;28;20038;-63
2021/11/12 01:00:12;;;;;;;23.42;6.93;;;;;;;11.54;100.00;101631.00;5011118;28;20042;-64
2021/11/12 01:02:39;;;;;;;23.83;6.60;;;;;;;11.60;100.00;101635.06;5010008;28;20118;-64
2021/11/12 01:05:06;;;;;;;18.65;5.18;;;;;;;11.56;100.00;101629.56;5004144;28;20494;-64
2021/11/12 01:07:31;;;;;;;25.95;6.82;;;;;;;11.60;100.00;101626.97;5011656;28;20041;-64
2021/11/12 01:09:58;;;;;;;19.75;6.60;;;;;;;11.62;100.00;101616.63;5010264;28;20034;-65
2021/11/12 01:12:23;;;;;;;28.92;7.03;;;;;;;11.64;100.00;101627.88;5006090;28;20554;-64
2021/11/12 01:14:49;;;;;;;25.00;6.90;;;;;;;11.57;100.00;101625.75;5013158;28;20045;-64
2021/11/12 01:17:15;;;;;;;30.33;6.63;;;;;;;11.55;100.00;101625.28;4989698;28;20341;-63
2021/11/12 01:19:40;;;;;;;26.88;7.00;;;;;;;11.63;100.00;101618.22;5007560;28;20034;-64
2021/11/12 01:22:06;;;;;;;21.55;6.25;;;;;;;11.58;100.00;101615.72;5012666;28;20014;-63
2021/11/12 01:24:31;;;;;;;29.13;7.03;;;;;;;11.56;100.00;101621.47;5012507;28;20030;-63
2021/11/12 01:26:57;;;;;;;16.67;5.05;;;;;;;11.55;100.00;101614.50;5009999;28;20037;-64
2021/11/12 01:29:22;;;;;;;27.27;6.10;;;;;;;11.50;100.00;101605.81;5008980;28;20061;-65
2021/11/12 01:31:47;;;;;;;21.60;5.70;;;;;;;11.52;100.00;101601.66;5007962;28;20038;-64
2021/11/12 01:34:16;;;;;;;23.52;6.60;;;;;;;11.53;100.00;101594.38;5012020;28;20045;-65
2021/11/12 01:36:45;;;;;;;22.08;6.45;;;;;;;11.55;100.00;101597.53;5012842;28;20555;-64
2021/11/12 01:39:20;;;;;;;24.30;7.00;;;;;;;11.48;100.00;101599.97;5001639;28;20407;-64
2021/11/12 01:41:50;;;;;;;15.57;5.22;;;;;;;11.42;100.00;101593.25;5008642;28;20119;-64
2021/11/12 01:44:27;;;;;;;21.33;5.82;;;;;;;11.46;100.00;101596.81;5001425;28;20519;-65
2021/11/12 01:49:56;;;;;;;23.85;6.60;;;;;;;11.39;100.00;101592.00;5012448;28;20037;-65
2021/11/12 02:00:14;;;;;;;19.52;5.63;;;;;;;11.51;100.00;101588.53;5008205;28;20041;-64
2021/11/12 02:02:40;;;;;;;19.58;5.55;;;;;;;11.53;100.00;101580.88;5003964;28;20038;-64
2021/11/12 02:05:05;;;;;;;21.60;5.43;;;;;;;11.51;100.00;101583.94;5001785;28;20096;-64
2021/11/12 02:07:36;;;;;;;22.02;5.47;;;;;;;11.58;100.00;101572.56;5011909;28;20029;-64
2021/11/12 02:10:12;;;;;;;29.42;6.55;;;;;;;11.51;100.00;101572.34;5010033;28;20037;-64
2021/11/12 02:13:16;;;;;;;27.42;6.28;;;;;;;11.49;100.00;101561.91;5011369;28;20113;-64
2021/11/12 02:15:31;;;;;;;22.63;6.85;;;;;;;11.49;100.00;101570.00;5001013;28;20038;-64
2021/11/12 02:18:09;;;;;;;24.52;6.90;;;;;;;11.50;100.00;101576.94;5010005;28;20132;-64
2021/11/12 02:20:43;;;;;;;22.35;6.40;;;;;;;11.43;100.00;101574.03;5001065;28;20053;-64
2021/11/12 02:23:09;;;;;;;24.85;5.90;;;;;;;11.42;100.00;101563.59;5009798;28;20033;-64
2021/11/12 02:25:40;;;;;;;26.58;6.80;;;;;;;11.41;100.00;101556.59;5011382;28;20381;-64
2021/11/12 02:28:16;;;;;;;23.67;6.10;;;;;;;11.39;100.00;101565.03;5011996;28;20381;-65
2021/11/12 02:30:49;;;;;;;19.95;5.57;;;;;;;11.32;100.00;101555.94;5011178;28;20033;-65
2021/11/12 02:33:18;;;;;;;21.88;6.25;;;;;;;11.32;100.00;101553.25;5010730;28;20034;-64
2021/11/12 02:36:00;;;;;;;28.88;7.35;;;;;;;11.21;100.00;101554.78;5003451;28;20030;-65
2021/11/12 02:38:26;;;;;;;19.25;5.60;;;;;;;11.20;100.00;101540.56;5002914;28;20081;-65
2021/11/12 02:40:51;;;;;;;21.30;5.03;;;;;;;11.20;100.00;101551.34;5009770;28;20044;-65
2021/11/12 02:43:17;;;;;;;30.40;5.97;;;;;;;11.27;100.00;101545.38;5007666;28;20010;-65
2021/11/12 02:45:44;;;;;;;24.70;6.30;;;;;;;11.22;100.00;101541.00;5010435;28;20338;-65
2021/11/12 02:48:11;;;;;;;18.27;6.05;;;;;;;11.21;100.00;101538.63;4994021;28;20044;-65
2021/11/12 02:50:40;;;;;;;30.83;6.35;;;;;;;11.16;100.00;101530.75;5000460;28;20099;-65
2021/11/12 02:53:12;;;;;;;32.90;7.07;;;;;;;11.16;100.00;101538.84;4983477;28;20265;-65
2021/11/12 02:55:38;;;;;;;24.88;5.45;;;;;;;11.08;100.00;101542.44;4989256;28;20064;-65
2021/11/12 02:58:04;;;;;;;21.55;5.97;;;;;;;11.14;100.00;101544.59;4998612;28;20048;-65
2021/11/12 03:00:30;;;;;;;27.80;5.75;;;;;;;11.16;100.00;101538.84;5006059;28;20038;-65
2021/11/12 03:02:56;;;;;;;22.17;5.10;;;;;;;11.18;100.00;101542.00;5006118;28;20439;-65
2021/11/12 03:05:22;;;;;;;20.45;5.53;;;;;;;11.13;100.00;101531.44;5005681;28;20104;-65
2021/11/12 03:07:48;;;;;;;16.70;5.25;;;;;;;11.22;100.00;101530.22;5007459;28;20520;-65
2021/11/12 03:10:15;;;;;;;22.50;5.93;;;;;;;11.26;100.00;101524.94;5005895;28;20034;-65
2021/11/12 03:12:42;;;;;;;25.42;5.53;;;;;;;11.24;100.00;101529.88;5005933;28;20064;-65
2021/11/12 03:15:11;;;;;;;28.05;5.82;;;;;;;11.21;100.00;101525.13;5005554;28;20057;-65
2021/11/12 03:17:39;;;;;;;19.50;4.82;;;;;;;11.23;100.00;101526.38;5011068;28;20395;-65
2021/11/12 03:20:06;;;;;;;16.65;5.55;;;;;;;11.25;100.00;101517.94;5010884;28;20046;-65
2021/11/12 03:22:39;;;;;;;20.92;4.32;;;;;;;11.17;100.00;101524.28;5007896;28;20037;-64
2021/11/12 03:25:09;;;;;;;21.50;4.82;;;;;;;11.09;100.00;101512.44;5004194;28;20423;-64
2021/11/12 04:18:11;;;;;;;15.68;6.47;;;;;;;10.95;100.00;101490.44;5007753;28;20042;-65
2021/11/12 05:44:03;;;;;;;22.33;6.75;;;;;;;10.64;100.00;101439.00;4963583;28;20038;-66
2021/11/12 05:46:46;;;;;;;21.83;6.10;;;;;;;10.59;100.00;101436.50;4962592;28;20130;-67
2021/11/12 05:57:08;;;;;;;17.70;4.75;;;;;;;10.61;100.00;101437.75;4971246;28;20149;-67
2021/11/12 05:59:34;;;;;;;21.42;5.60;;;;;;;10.67;100.00;101441.00;4963544;28;20114;-66
2021/11/12 06:01:59;;;;;;;28.17;5.85;;;;;;;10.73;100.00;101436.97;4967967;28;20090;-66
2021/11/12 06:04:25;;;;;;;24.33;6.60;;;;;;;10.76;100.00;101437.09;4970368;28;20497;-66
2021/11/12 06:06:51;;;;;;;24.33;5.13;;;;;;;10.73;100.00;101432.38;4970963;28;20030;-67
2021/11/12 06:09:16;;;;;;;18.90;4.65;;;;;;;10.74;100.00;101428.56;4973013;28;20074;-65
2021/11/12 06:11:42;;;;;;;22.27;5.32;;;;;;;10.67;100.00;101414.09;4968487;28;20037;-66
2021/11/12 06:14:08;;;;;;;23.77;6.38;;;;;;;10.70;100.00;101416.88;4969902;28;20086;-67
2021/11/12 06:16:34;;;;;;;22.77;5.03;;;;;;;10.67;100.00;101408.69;4967571;28;20643;-66
2021/11/12 06:19:00;;;;;;;16.40;4.75;;;;;;;10.63;100.00;101405.88;4967524;28;20073;-67
2021/11/12 06:21:26;;;;;;;24.65;5.82;;;;;;;10.71;100.00;101410.38;4968460;28;20218;-67
2021/11/12 06:23:51;;;;;;;26.23;4.63;;;;;;;10.58;100.00;101403.44;4965866;28;20039;-67
2021/11/12 06:26:17;;;;;;;16.52;4.85;;;;;;;10.66;100.00;101402.53;4972083;28;20066;-66
2021/11/12 06:28:43;;;;;;;20.45;5.45;;;;;;;10.65;100.00;101400.97;4968578;28;20037;-67
2021/11/12 06:31:08;;;;;;;15.95;3.97;;;;;;;10.54;100.00;101405.22;4967346;28;20031;-66
2021/11/12 06:33:34;;;;;;;13.77;4.03;;;;;;;10.64;100.00;101399.41;4968972;28;20126;-65
2021/11/12 06:36:00;;;;;;;18.75;4.78;;;;;;;10.68;100.00;101405.66;4970370;28;20047;-66
2021/11/12 06:38:29;;;;;;;12.40;4.30;;;;;;;10.59;100.00;101402.28;4967466;28;20049;-65
2021/11/12 06:41:00;;;;;;;19.23;4.00;;;;;;;10.62;100.00;101396.25;4968743;28;20051;-67
2021/11/12 06:43:37;;;;;;;16.13;4.45;;;;;;;10.67;100.00;101396.03;4971502;28;20050;-67
2021/11/12 06:51:31;;;;;;;21.80;4.55;;;;;;;10.65;100.00;101384.78;4963747;28;20496;-65
2021/11/12 06:53:57;;;;;;;15.57;4.13;;;;;;;10.71;100.00;101378.06;4960785;28;20117;-67
2021/11/12 06:56:23;;;;;;;14.55;4.68;;;;;;;10.69;100.00;101382.22;4967823;28;20046;-66
2021/11/12 06:58:50;;;;;;;15.68;4.25;;;;;;;10.74;100.00;101377.38;4970133;28;20035;-67
2021/11/12 07:01:17;;;;;;;24.88;4.10;;;;;;;10.74;100.00;101377.38;4969063;28;20073;-67
2021/11/12 07:03:42;;;;;;;16.75;4.88;;;;;;;10.60;100.00;101370.78;4955370;28;20041;-66
2021/11/12 07:06:08;;;;;;;15.73;4.50;;;;;;;10.69;100.00;101371.44;4966801;28;20034;-67
2021/11/12 07:08:34;;;;;;;16.02;4.50;;;;;;;10.72;100.00;101374.22;4971076;28;20492;-67
2021/11/12 07:10:59;;;;;;;15.32;4.90;;;;;;;10.74;100.00;101377.38;4966834;28;20038;-66
2021/11/12 07:13:25;;;;;;;29.05;5.32;;;;;;;10.74;100.00;101387.38;4968855;28;20486;-66
2021/11/12 07:15:54;;;;;;;20.60;5.15;;;;;;;10.74;100.00;101382.75;4971167;28;20098;-67
2021/11/12 07:18:21;;;;;;;15.15;4.07;;;;;;;10.76;100.00;101380.53;4965190;28;20440;-67
2021/11/12 07:20:51;;;;;;;16.63;4.38;;;;;;;10.76;100.00;101385.91;4970244;28;20034;-67
2021/11/12 07:23:19;;;;;;;14.77;4.13;;;;;;;10.80;100.00;101397.59;4953969;28;20042;-66
2021/11/12 07:25:45;;;;;;;16.52;4.20;;;;;;;10.86;100.00;101387.34;4965876;28;20054;-66
2021/11/12 07:28:11;;;;;;;21.27;4.40;;;;;;;10.75;100.00;101389.75;4967779;28;20181;-67
2021/11/12 07:30:41;;;;;;;19.52;4.00;;;;;;;10.79;100.00;101396.03;4965784;28;20035;-67
2021/11/12 07:33:08;;;;;;;15.20;4.32;;;;;;;10.79;100.00;101393.34;4966332;28;20050;-67
2021/11/12 07:35:38;;;;;;;19.95;4.20;;;;;;;10.80;100.00;101391.44;4959159;28;20046;-66
2021/11/12 07:38:14;;;;;;;14.38;4.00;;;;;;;10.79;100.00;101393.34;4971256;28;20042;-65
2021/11/12 07:48:54;;;;;;;14.85;3.88;;;;;;;10.89;100.00;101371.31;4969539;28;20069;-66
2021/11/12 07:51:20;;;;;;;14.38;3.83;;;;;;;10.78;100.00;101362.09;4970982;28;20039;-66
2021/11/12 07:53:46;;;;;;;20.25;3.63;;;;;;;10.80;100.00;101367.19;4969373;28;20552;-66
2021/11/12 07:56:15;;;;;;;18.08;4.32;;;;;;;10.83;100.00;101353.81;4971720;28;20035;-66
2021/11/12 07:58:40;;;;;;;13.20;3.65;;;;;;;10.87;100.00;101357.41;4955559;28;20030;-67
2021/11/12 08:01:06;;;;;;;12.65;3.70;;;;;;;10.81;100.00;101356.06;4964795;28;20425;-66
2021/11/12 08:03:32;;;;;;;14.13;3.20;;;;;;;10.82;100.00;101346.84;4960965;28;20552;-66
2021/11/12 08:06:00;;;;;;;17.02;4.25;;;;;;;10.82;100.00;101352.22;4971252;28;20497;-66
2021/11/12 08:08:27;;;;;;;18.75;4.45;;;;;;;10.70;100.00;101354.94;4969772;28;20037;-67
2021/11/12 08:11:03;;;;;;;17.60;3.92;;;;;;;10.68;100.00;101365.25;4968899;28;20055;-65
2021/11/12 08:23:47;;;;;;;14.50;3.67;;;;;;;10.64;100.00;101350.91;4959709;28;20023;-66
2021/11/12 08:29:03;;;;;;;22.02;4.57;;;;;;;10.80;100.00;101335.63;4967936;28;20045;-67
2021/11/12 08:31:54;;;;;;;11.30;3.83;;;;;;;10.71;100.00;101334.97;4965593;28;20172;-67
2021/11/12 08:39:55;;;;;;;13.68;3.90;;;;;;;10.85;100.00;101324.63;4960634;28;20031;-66
2021/11/12 08:42:29;;;;;;;17.63;3.25;;;;;;;10.82;100.00;101319.91;4963338;28;20042;-66
2021/11/12 08:45:39;;;;;;;20.17;4.22;;;;;;;10.89;100.00;101322.81;4967185;28;20038;-66
2021/11/12 08:47:49;;;;;;;25.40;5.30;;;;;;;10.89;100.00;101327.41;4954228;28;20055;-65
2021/11/12 08:50:20;;;;;;;12.48;3.55;;;;;;;10.82;100.00;101325.28;4961029;28;20035;-66
2021/11/12 08:52:51;;;;;;;11.20;3.78;;;;;;;10.84;100.00;101328.44;4968068;28;20031;-66
2021/11/12 08:55:23;;;;;;;13.80;4.05;;;;;;;10.90;100.00;101321.69;4965816;28;20066;-66
2021/11/12 08:57:49;;;;;;;16.77;5.03;;;;;;;10.85;100.00;101318.44;4968191;28;20039;-66
2021/11/12 09:00:14;;;;;;;10.07;3.72;;;;;;;10.82;100.00;101314.50;4965384;28;20058;-65
2021/11/12 09:02:40;;;;;;;20.30;4.85;;;;;;;10.97;100.00;101312.25;4966033;28;20054;-67
2021/11/12 09:05:05;;;;;;;17.50;4.32;;;;;;;11.01;100.00;101316.63;4968182;28;20547;-66
2021/11/12 09:07:31;;;;;;;11.32;3.65;;;;;;;10.97;100.00;101304.94;4968789;28;20038;-66
2021/11/12 09:09:57;;;;;;;15.30;4.47;;;;;;;10.97;100.00;101301.47;4967407;28;20034;-66
2021/11/12 09:12:25;;;;;;;9.50;3.13;;;;;;;10.98;100.00;101300.31;4961481;28;20027;-66
2021/11/12 09:14:53;;;;;;;10.60;3.47;;;;;;;10.93;100.00;101300.56;4972408;28;20027;-66
2021/11/12 09:17:22;;;;;;;11.52;4.22;;;;;;;11.12;100.00;101304.22;4965175;28;20026;-66
2021/11/12 09:22:16;;;;;;;12.40;3.65;;;;;;;11.13;100.00;101299.63;4971184;28;20066;-66
2021/11/12 09:24:44;;;;;;;14.75;4.95;;;;;;;11.19;100.00;101300.97;4973150;28;20019;-66
2021/11/12 09:27:11;;;;;;;12.32;3.45;;;;;;;11.11;100.00;101294.56;4973589;28;20039;-66
2021/11/12 09:29:37;;;;;;;12.48;4.28;;;;;;;11.15;100.00;101294.69;4974451;28;20031;-66
2021/11/12 09:32:04;;;;;;;6.68;3.55;;;;;;;11.17;100.00;101290.50;4972004;28;20050;-66
2021/11/12 09:34:34;;;;;;;11.88;3.70;;;;;;;11.13;100.00;101288.84;4973550;28;20412;-66
2021/11/12 09:37:01;;;;;;;9.40;2.70;;;;;;;11.15;100.00;101283.91;4972746;28;20556;-66
2021/11/12 09:39:28;;;;;;;7.35;3.05;;;;;;;11.10;100.00;101286.81;4971527;28;20034;-66
2021/11/12 09:41:54;;;;;;;11.20;3.92;;;;;;;11.07;100.00;101282.13;4973488;28;20027;-67
2021/11/12 09:44:20;;;;;;;8.60;3.67;;;;;;;11.14;100.00;101282.31;4974216;28;20041;-66
2021/11/12 09:46:48;;;;;;;7.63;3.17;;;;;;;11.15;100.00;101289.28;4970315;28;20102;-66
2021/11/12 09:49:14;;;;;;;6.70;3.35;;;;;;;11.11;100.00;101285.72;4971905;28;20050;-68
2021/11/12 09:51:40;;;;;;;8.63;3.72;;;;;;;11.23;100.00;101281.03;4961943;28;20035;-66
2021/11/12 09:54:06;;;;;;;11.32;4.03;;;;;;;11.24;100.00;101289.91;4960240;28;20513;-67
2021/11/12 09:56:32;;;;;;;10.32;3.47;;;;;;;11.28;100.00;101283.50;4969713;28;20085;-66
2021/11/12 09:58:58;;;;;;;7.43;3.08;;;;;;;11.27;100.00;101283.81;4972050;28;20501;-66
2021/11/12 10:01:28;;;;;;;10.35;3.33;;;;;;;11.32;100.00;101267.44;4964849;28;20094;-66
2021/11/12 10:03:55;;;;;;;10.67;3.73;;;;;;;11.36;100.00;101273.69;4971435;28;20569;-67
2021/11/12 10:06:23;;;;;;;8.73;3.70;;;;;;;11.34;100.00;101271.31;4964262;28;20298;-67
2021/11/12 10:08:51;;;;;;;11.18;3.30;;;;;;;11.28;100.00;101267.34;4970912;28;20524;-66
2021/11/12 10:11:24;;;;;;;8.00;3.05;;;;;;;11.32;100.00;101270.91;4971522;28;20405;-67
2021/11/12 10:13:59;;;;;;;8.40;3.17;;;;;;;11.35;100.00;101264.03;4970365;28;20507;-67
2021/11/12 10:16:37;;;;;;;6.55;2.65;;;;;;;11.37;100.00;101270.66;4966957;28;20560;-66
2021/11/12 10:19:22;;;;;;;5.75;2.72;;;;;;;11.46;100.00;101257.78;4973037;28;20042;-66
2021/11/12 10:21:58;;;;;;;5.50;2.70;;;;;;;11.43;100.00;101263.88;4969191;28;20477;-67
2021/11/12 10:24:30;;;;;;;7.50;3.15;;;;;;;11.42;100.00;101256.91;4971755;28;20129;-66
2021/11/12 10:27:12;;;;;;;6.47;2.53;;;;;;;11.47;100.00;101255.88;4973214;28;20069;-67
2021/11/12 10:29:48;;;;;;;8.32;2.83;;;;;;;11.53;100.00;101262.59;4969742;28;20053;-69
2021/11/12 10:32:18;;;;;;;7.07;2.83;;;;;;;11.61;100.00;101250.88;4965149;28;20038;-67
2021/11/12 10:34:46;;;;;;;6.50;3.08;;;;;;;11.61;100.00;101248.94;4973227;28;20127;-66
2021/11/12 10:37:11;;;;;;;6.25;2.45;;;;;;;11.57;100.00;101242.69;4969187;28;20045;-66
2021/11/12 10:39:41;;;;;;;9.85;3.17;;;;;;;11.50;100.00;101245.19;4968682;28;20046;-66
2021/11/12 10:42:29;;;;;;;8.25;3.25;;;;;;;11.48;100.00;101233.16;4970843;28;20058;-67
2021/11/12 10:45:05;;;;;;;7.20;3.08;;;;;;;11.55;100.00;101233.38;4966959;28;20050;-66
2021/11/12 10:47:32;;;;;;;7.68;2.95;;;;;;;11.50;100.00;101231.69;4968018;28;20081;-67
2021/11/12 10:50:03;;;;;;;9.38;3.20;;;;;;;11.62;100.00;101237.03;4970495;28;20022;-69
2021/11/12 10:52:30;;;;;;;8.60;3.80;;;;;;;11.66;100.00;101229.03;4960624;28;20050;-67
2021/11/12 10:55:04;;;;;;;9.27;3.58;;;;;;;11.61;100.00;101226.59;4959986;28;20051;-66
2021/11/12 10:57:36;;;;;;;11.85;3.45;;;;;;;11.64;100.00;101220.47;4971963;28;20193;-66
2021/11/12 11:00:12;;;;;;;7.85;2.78;;;;;;;11.73;100.00;101223.81;4966963;28;20034;-66
2021/11/12 11:02:49;;;;;;;7.63;3.80;;;;;;;11.76;100.00;101221.22;4972200;28;20030;-67
2021/11/12 11:05:50;;;;;;;11.88;3.40;;;;;;;11.77;100.00;101227.38;4972482;28;20086;-67
2021/11/12 11:08:21;;;;;;;6.93;3.10;;;;;;;11.81;100.00;101227.50;4955338;28;20047;-66
2021/11/12 11:11:02;;;;;;;;;;;;;;;11.86;100.00;101227.22;4967345;28;20073;-65
2021/11/12 11:13:30;;;;;;;6.85;2.28;;;;;;;11.92;100.00;101218.53;4963893;28;19925;-67
2021/11/12 11:16:01;;;;;;;8.10;3.50;;;;;;;11.89;100.00;101221.91;4969731;28;20034;-66
2021/11/12 11:18:28;;;;;;;7.43;3.22;;;;;;;11.89;100.00;101205.72;4965465;28;20113;-66
2021/11/12 11:23:48;;;;;;;8.60;2.90;;;;;;;11.82;100.00;101204.75;4967308;28;20525;-66
2021/11/12 11:26:17;;;;;;;5.70;1.90;;;;;;;11.86;100.00;101195.63;4969537;28;20106;-67
2021/11/12 11:28:44;;;;;;;7.55;3.33;;;;;;;11.86;100.00;101195.63;4953100;28;20031;-65
2021/11/12 11:31:12;;;;;;;7.75;3.42;;;;;;;11.86;100.00;101179.44;4965701;28;20033;-67
2021/11/12 11:33:43;;;;;;;7.72;2.47;;;;;;;11.95;100.00;101184.63;4971629;28;20161;-67
2021/11/12 11:36:10;;;;;;;6.10;1.67;;;;;;;11.97;100.00;101174.28;4972225;28;20039;-66
2021/11/12 11:38:42;;;;;;;5.80;2.60;;;;;;;11.97;100.00;101175.06;4967943;28;20297;-66
2021/11/12 11:41:13;;;;;;;5.47;2.17;;;;;;;11.99;100.00;101174.69;4969804;28;20066;-67
2021/11/12 11:43:39;;;;;;;;;;;;;;;11.93;100.00;101174.19;4971155;28;20035;-66
2021/11/12 11:46:30;;;;;;;4.10;2.08;;;;;;;11.99;100.00;101166.59;4958450;28;19928;-67
2021/11/12 11:49:00;;;;;;;4.93;2.25;;;;;;;12.04;100.00;101164.41;4952215;28;20089;-66
2021/11/12 11:51:27;;;;;;;4.30;2.30;;;;;;;11.99;100.00;101158.50;4969261;28;20034;-66
2021/11/12 11:53:53;;;;;;;6.95;2.45;;;;;;;11.99;100.00;101145.00;4953557;28;20031;-66
2021/11/12 11:56:26;;;;;;;8.00;2.75;;;;;;;12.01;100.00;101146.22;4964737;28;20031;-65
2021/11/12 11:59:17;;;;;;;4.93;2.30;;;;;;;11.97;100.00;101148.06;4969728;28;20039;-65
2021/11/12 12:01:52;;;;;;;4.22;1.92;;;;;;;11.95;100.00;101144.16;4958920;28;20038;-65
2021/11/12 12:04:18;;;;;;;5.05;2.42;;;;;;;11.92;100.00;101150.25;4969984;28;20503;-66
2021/11/12 12:07:04;;;;;;;6.45;2.70;;;;;;;11.90;100.00;101142.53;4969652;28;20109;-66
2021/11/12 12:09:52;;;;;;;5.63;2.55;;;;;;;11.83;100.00;101139.63;4966286;28;20829;-66
2021/11/12 12:12:30;;;;;;;6.53;2.35;;;;;;;11.81;100.00;101138.44;4952099;28;20033;-66
2021/11/12 12:15:17;;;;;;;6.10;2.45;;;;;;;11.90;100.00;101120.94;4971698;28;20057;-67
2021/11/12 12:18:04;;;;;;;5.53;2.15;;;;;;;11.85;100.00;101115.00;4968892;28;20031;-66
2021/11/12 13:25:36;;;;;;;4.63;2.50;;;;;;;11.72;100.00;101018.00;4965535;28;20043;-65
2021/11/12 13:28:09;;;;;;;3.85;1.83;;;;;;;11.73;99.73;101024.16;4959927;28;20043;-65
2021/11/12 13:30:35;;;;;;;2.97;1.67;;;;;;;11.70;100.00;101014.88;4958611;28;20034;-65
2021/11/12 13:33:01;;;;;;;4.72;1.98;;;;;;;11.68;100.00;101019.03;4943159;28;20037;-66
2021/11/12 13:35:36;;;;;;;3.58;1.88;;;;;;;11.88;98.97;101022.56;4956279;28;20063;-66
2021/11/12 13:38:04;;;;;;;9.10;2.42;;;;;;;11.69;100.00;101012.53;4960935;28;20054;-66
2021/11/12 13:40:32;;;;;;;4.45;2.35;;;;;;;11.72;100.00;101004.50;4955260;28;20087;-66
2021/11/12 13:42:58;;;;;;;5.32;1.55;;;;;;;11.65;100.00;101001.63;4963119;28;20026;-67
2021/11/12 13:45:27;;;;;;;3.03;1.52;;;;;;;11.71;100.00;100988.69;4964865;28;20043;-65
2021/11/12 13:48:11;;;;;;;4.25;1.90;;;;;;;11.75;99.81;100994.91;4962342;28;20066;-65
2021/11/12 13:50:50;;;;;;;2.75;1.52;;;;;;;11.68;100.00;100983.97;4963699;28;20043;-66
2021/11/12 13:53:16;;;;;;;2.95;1.55;;;;;;;11.69;100.00;100996.34;4965551;28;20513;-65
2021/11/12 13:55:42;;;;;;;2.75;1.38;;;;;;;11.72;99.86;100982.13;4959805;28;20039;-66
2021/11/12 13:58:08;;;;;;;3.25;1.60;;;;;;;11.74;99.07;100977.16;4963136;28;20406;-65
2021/11/12 14:00:35;;;;;;;3.17;1.38;;;;;;;11.74;98.39;100969.88;4960348;28;20038;-66
2021/11/12 14:03:14;;;;;;;3.70;1.52;;;;;;;11.66;97.77;100972.75;4964693;28;20796;-65
2021/11/12 14:05:52;;;;;;;4.38;1.67;;;;;;;11.56;98.70;100970.56;4964653;28;20050;-65
2021/11/12 14:08:18;;;;;;;4.00;1.35;;;;;;;11.58;98.62;100971.78;4963952;28;20952;-65
2021/11/12 14:10:50;;;;;;;2.53;1.42;;;;;;;11.55;99.28;100967.13;4962423;28;20042;-65
2021/11/12 14:13:19;;;;;;;4.10;1.73;;;;;;;11.55;98.92;100975.22;4966756;28;20053;-65
2021/11/12 14:16:10;;;;;;;4.15;1.23;;;;;;;11.51;98.47;100968.97;4961986;28;20041;-66
2021/11/12 14:18:54;;;;;;;2.88;1.42;;;;;;;11.57;98.26;100962.16;4964775;28;20034;-65
2021/11/12 14:21:29;;;;;;;2.90;1.38;;;;;;;11.52;98.99;100951.63;4960023;28;20045;-64
2021/11/12 14:29:16;;;;;;;7.05;1.88;;;;;;;11.49;97.41;100949.66;4981348;28;20061;-67
2021/11/12 14:31:50;;;;;;;3.83;1.45;;;;;;;11.45;96.66;100953.41;4990431;28;20038;-68
2021/11/12 14:34:40;;;;;;;6.30;1.50;;;;;;;11.44;96.54;100958.00;4991579;28;20038;-68
2021/11/12 14:39:52;;;;;;;2.65;1.45;;;;;;;11.37;97.30;100932.81;4987739;28;20088;-67
2021/11/12 14:45:12;;;;;;;3.30;1.90;;;;;;;11.45;95.52;100927.22;4985858;28;20046;-68
2021/11/12 14:50:36;;;;;;;2.15;1.63;;;;;;;11.34;95.05;100915.41;4981620;28;20113;-66
2021/11/12 14:53:21;;;;;;;4.82;1.75;;;;;;;11.39;94.40;100919.75;4967124;28;20030;-66
2021/11/12 14:55:52;;;;;;;2.22;1.50;;;;;;;11.34;94.33;100918.09;4973968;28;20049;-66
2021/11/12 14:58:20;;;;;;;3.72;2.17;;;;;;;11.38;94.19;100915.50;4991041;28;20121;-66
2021/11/12 15:00:48;;;;;;;2.70;1.48;;;;;;;11.25;94.05;100905.94;4985074;28;20034;-66
2021/11/12 15:03:14;;;;;;;4.15;2.40;;;;;;;11.29;93.81;100904.13;4972269;28;20072;-66
2021/11/12 15:05:39;;;;;;;4.13;1.92;;;;;;;11.32;93.42;100916.91;4991047;28;20050;-66
2021/11/12 15:08:21;;;;;;;4.25;1.85;;;;;;;11.23;94.08;100910.91;4990977;28;20077;-66
2021/11/12 15:10:47;;;;;;;6.05;2.33;;;;;;;11.27;93.24;100917.16;4989559;28;20460;-66
2021/11/12 15:13:14;;;;;;;5.50;2.80;;;;;;;11.18;93.95;100914.69;4991333;28;20117;-66
2021/11/12 15:15:40;;;;;;;4.30;2.53;;;;;;;11.27;93.22;100904.47;4990290;28;20117;-66
2021/11/12 15:18:07;;;;;;;4.68;2.38;;;;;;;11.15;93.07;100907.28;4991187;28;20037;-66
2021/11/12 15:20:35;;;;;;;4.50;2.55;;;;;;;11.15;92.49;100901.13;4987786;28;20377;-66
2021/11/12 15:31:05;;;;;;;5.50;2.50;;;;;;;11.17;91.44;100898.88;4932259;28;20056;-66
2021/11/12 15:33:32;;;;;;;5.78;2.67;;;;;;;11.03;92.25;100896.66;4988351;28;20527;-66
2021/11/12 15:36:00;;;;;;;5.57;3.03;;;;;;;11.08;90.91;100899.06;4989394;28;20044;-65
2021/11/12 15:38:33;;;;;;;3.80;2.20;;;;;;;11.01;91.51;100900.81;4988644;28;20401;-68
2021/11/12 15:41:04;;;;;;;6.32;2.53;;;;;;;10.95;91.57;100897.63;4964788;28;20030;-67
2021/11/12 15:43:41;;;;;;;3.90;2.70;;;;;;;10.97;91.54;100897.25;4989792;28;20034;-66
2021/11/12 15:46:15;;;;;;;7.03;3.28;;;;;;;11.03;91.02;100891.25;4982747;28;20536;-66
2021/11/12 15:48:42;;;;;;;5.35;2.90;;;;;;;10.99;90.63;100892.31;4988521;28;20519;-66
2021/11/12 16:05:04;;;;;;;7.82;3.33;;;;;;;10.82;90.37;100872.69;4987006;28;20037;-68
2021/11/12 16:07:09;;;;;;;7.43;3.78;;;;;;;10.75;90.42;100866.34;4985341;28;20042;-68
2021/11/12 16:25:19;;;;;;;8.65;4.22;;;;;;;10.36;90.99;100832.34;4988639;28;20030;-68
2021/11/12 16:27:47;;;;;;;10.23;4.63;;;;;;;10.35;91.03;100820.81;4988244;28;20041;-67
2021/11/12 16:30:15;;;;;;;10.75;4.30;;;;;;;10.18;92.44;100810.38;4986433;28;20117;-68
2021/11/12 16:32:50;;;;;;;24.00;8.77;;;;;;;10.22;91.80;100810.50;4988496;28;20030;-68
2021/11/12 16:35:22;;;;;;;8.77;5.00;;;;;;;10.16;91.60;100799.22;4965997;28;20133;-67
2021/11/12 16:37:52;;;;;;;10.25;5.53;;;;;;;10.08;92.16;100792.06;4986911;28;20042;-68
2021/11/12 16:48:26;;;;;;;9.40;5.20;;;;;;;9.99;92.60;100796.81;4979430;28;20042;-67
2021/11/12 16:53:34;;;;;;;8.20;4.22;;;;;;;9.91;92.89;100805.84;4985873;28;20487;-68
2021/11/12 16:56:35;;;;;;;11.35;5.45;;;;;;;9.90;92.89;100806.97;4981490;28;20648;-67
2021/11/12 17:04:19;;;;;;;12.88;5.63;;;;;;;9.78;93.46;100818.59;4985936;28;20449;-68
2021/11/12 17:09:43;;;;;;;11.05;4.95;;;;;;;9.70;94.17;100824.09;4986806;28;20046;-68
2021/11/12 17:20:14;;;;;;;10.80;4.97;;;;;;;9.31;94.02;100830.34;4990489;28;20038;-67
2021/11/12 17:47:05;;;;;;;13.73;5.97;;;;;;;9.15;94.25;100829.50;4985286;28;20053;-68
2021/11/12 18:05:33;;;;;;;18.45;5.70;;;;;;;9.11;93.90;100821.34;4988906;28;20093;-67